Terminal Aerodrome Forecast
Issued by NWS

Current Version | Previous Version | Graphics & Text | Print | Product List | Glossary On
Versions: 1 2 3 4 5 6 7 8 9 10 11 12 13 14 15 16 17 18 19 20 21 22
000
FTUS41 KILN 201613 AAB
TAFLCK
TAF AMD
KLCK 201613Z 2016/2112 00000KT 1/4SM FG OVC002
     FM201700 13004KT 3SM BR SCT002
     FM201800 13004KT P6SM SCT070
     FM210400 13005KT P6SM BKN200=

USA.gov is the U.S. government's official web portal to all federal, state and local government web resources and services.